UNNTUNKL

Guest
Details From UNNT - Novosibirsk Tolmachevo
To UNKL - Yemelyanovo
Flight Number -
Tags Generated
Created
Modified
Stats Distance 341 nm / 632 km
Max Altitude 0 ft / 0 m
Waypoints 3
Social Downloads 2
Likes 0
Share VATSIM

Download

Looking for another format? Having issues loading an existing format? Contact us
Advertisement - Login to hide

Notes

Generated

Route

UNNT AJ UNKL

ID Type Via Altitude Latitude Longitude Leg Dist Tot Dist Heading (true) Name
O UNNT APT - 0 ft / 0 m 55.01130˚ 82.62816˚ - 0 nm - -
AJ NDB - 0 ft / 0 m 56.19333˚ 92.40667˚ 338 nm 338 nm 74° / 82° KRASNOYARSK NDB
O UNKL APT - 0 ft / 0 m 56.17948˚ 92.46587˚ 2 nm 341 nm 113° / 113° -

Altitude Profile

Advertisement - Login to hide

Weather


0- 5 10 15 20 25 30 35+ Temperature / ° C

Clouds and Precipitation
Forecast for 2018-05-24 00:00 UTC. Updated 3 hours ago

Ground ~20,000 ft ~40,000 ft Winds

UNNT

Details ICAO UNNT (OVB)
Name Novosibirsk Tolmachevo
Region Russia
Timezone Asia/Novosibirsk (UTC+7.0)
Stats Elevation 365 ft / 111 m (AMSL)
Location 55.013017° 82.651065°
Runways 2
Magnetic Variation 8.868° E

METAR

UNNT 240200Z 30007MPS 9999 OVC035 04/M01 Q1017 R25/090070 R34/290160 NOSIG RMK QFE752/1003

Decode

TAF

TAF UNNT 232300Z 2400/2424 32005MPS 9999 BKN030CB BECMG 2405/2407 26005G10MPS BECMG 2412/2414 18005G10MPS TEMPO 2414/2424 -SHRA BKN011CB

Decode

Departure Runways

ID Width Length Bearing (true) Bearing (mag) Surface Threshold Offset Overrun Length
07 190 ft / 58 m 11,817 ft / 3,602 m 81.00° 72.13° Asphalt 0 ft / 0 m 250 ft / 76 m
07L 304 ft / 93 m 9,877 ft / 3,011 m 81.01° 72.14° Grass 0 ft / 0 m 0 ft / 0 m
25 190 ft / 58 m 11,817 ft / 3,602 m 261.04° 252.17° Asphalt 0 ft / 0 m 225 ft / 69 m
25R 304 ft / 93 m 9,877 ft / 3,011 m 261.05° 252.18° Grass 0 ft / 0 m 0 ft / 0 m

UNKL

Details ICAO UNKL (KJA)
Name YEMELYANOVO
Region Russia
Timezone Asia/Krasnoyarsk (UTC+7.0)
Stats Elevation 942 ft / 287 m (AMSL)
Location 56.172946° 92.493276°
Runways 1
Magnetic Variation 4.106° E

METAR

UNKL 240200Z 27006MPS 9999 FEW043CB 09/01 Q1004 R29/CLRD65 NOSIG RMK QFE728

Decode

TAF

TAF UNKL 232254Z 2400/2424 27007G14MPS 9999 SCT020CB TEMPO 2400/2418 3100 -SHRA BKN015CB

Decode

Destination Runways

ID Width Length Bearing (true) Bearing (mag) Surface Threshold Offset Overrun Length
11 197 ft / 60 m 12,113 ft / 3,692 m 113.16° 109.05° Asphalt 0 ft / 0 m 235 ft / 72 m
29 197 ft / 60 m 12,113 ft / 3,692 m 293.21° 289.10° Asphalt 0 ft / 0 m 215 ft / 66 m

Popular Alternatives